createdAt,value
2023-03-18T17:20:20.759Z,47.68
2023-03-18T17:21:24.378Z,43.62
2023-03-18T17:22:29.900Z,43.99
2023-03-18T17:32:11.164Z,49.88
2023-03-18T17:33:29.114Z,44.67
2023-03-18T17:34:32.254Z,47.55
2023-03-18T17:35:36.114Z,44.15
2023-03-18T17:36:40.862Z,43.08
2023-03-18T17:37:44.021Z,43.22
2023-03-18T17:38:48.166Z,43.45
2023-03-18T17:39:51.525Z,43.88
2023-03-18T17:40:56.343Z,43.82
2023-03-18T17:41:59.610Z,43.90
2023-03-18T17:43:01.831Z,43.86
2023-03-18T17:44:27.205Z,43.92
2023-03-18T17:45:39.297Z,43.90
2023-03-18T17:46:43.746Z,43.89
2023-03-18T17:47:45.969Z,43.89
2023-03-18T17:48:50.128Z,43.95
2023-03-18T17:49:53.494Z,43.50
2023-03-18T17:52:18.212Z,43.18
2023-03-18T17:53:47.899Z,43.18
2023-03-18T17:54:52.097Z,41.82
2023-03-18T17:55:56.238Z,42.37
2023-03-18T17:57:00.122Z,42.66
2023-03-18T17:58:07.685Z,42.93
2023-03-18T18:00:29.171Z,42.94
2023-03-18T18:01:32.668Z,43.90
2023-03-18T18:02:35.905Z,44.38
2023-03-18T18:07:18.788Z,47.47
2023-03-18T18:08:23.078Z,34.06
2023-03-18T18:09:28.948Z,33.98
2023-03-18T18:10:36.365Z,35.35
2023-03-18T18:11:41.611Z,37.47
2023-03-18T18:12:48.593Z,38.70
2023-03-18T18:13:56.099Z,40.25
2023-03-18T18:15:02.504Z,41.63
2023-03-18T18:16:05.101Z,42.96
2023-03-18T18:17:16.250Z,43.77
2023-03-18T18:19:33.403Z,45.57
2023-03-18T18:20:35.624Z,46.47
2023-03-18T18:21:38.270Z,47.21
2023-03-18T18:22:44.234Z,47.85
2023-03-18T18:23:47.889Z,48.38
2023-03-18T18:24:51.303Z,48.60
2023-03-18T18:25:55.418Z,49.54
2023-03-18T18:27:00.843Z,50.13
2023-03-18T18:28:11.264Z,50.92
2023-03-18T18:29:16.949Z,51.29
2023-03-18T18:30:27.441Z,51.68
2023-03-18T18:31:29.503Z,52.63
2023-03-18T18:32:35.189Z,52.83
2023-03-18T18:33:40.735Z,53.37
2023-03-18T18:34:43.566Z,53.87
2023-03-18T18:35:45.729Z,54.34
2023-03-18T18:36:50.110Z,54.81
2023-03-18T18:37:52.943Z,55.24
2023-03-18T18:38:59.903Z,55.05
2023-03-18T18:40:09.293Z,55.15
2023-03-18T18:41:11.634Z,55.60
2023-03-18T18:42:13.796Z,55.48
2023-03-18T18:43:16.457Z,55.96
2023-03-18T18:44:18.611Z,56.20
2023-03-18T18:45:23.040Z,56.19
2023-03-18T18:46:26.685Z,56.44
2023-03-18T18:47:29.356Z,56.64
2023-03-18T18:49:45.140Z,56.68
2023-03-18T18:50:50.073Z,57.12
2023-03-18T18:51:55.543Z,57.13
2023-03-18T18:52:59.163Z,57.29
2023-03-18T18:54:02.727Z,57.23
2023-03-18T18:55:06.619Z,57.12
2023-03-18T18:56:25.381Z,57.21
2023-03-18T18:57:30.279Z,57.33
2023-03-18T18:58:32.726Z,57.24
2023-03-18T18:59:35.775Z,57.42
2023-03-18T19:00:39.291Z,57.24
2023-03-18T19:01:45.426Z,57.61
2023-03-18T19:02:56.983Z,57.44
2023-03-18T19:04:04.097Z,57.54
2023-03-18T19:05:09.151Z,57.64
2023-03-18T19:06:35.448Z,57.64
2023-03-18T19:07:43.449Z,57.09
2023-03-18T19:08:50.746Z,57.34
2023-03-18T19:09:57.460Z,57.46
2023-03-18T19:11:03.650Z,57.71
2023-03-18T19:12:12.950Z,57.55
2023-03-18T19:13:18.973Z,57.72
2023-03-18T19:14:26.320Z,57.70
2023-03-18T19:15:28.539Z,56.99
2023-03-18T19:16:33.681Z,57.25
2023-03-18T19:17:37.700Z,57.17
2023-03-18T19:18:42.093Z,57.57
2023-03-18T19:19:49.028Z,57.45
2023-03-18T19:20:53.362Z,57.86
2023-03-18T19:21:58.549Z,57.37
2023-03-18T19:23:08.070Z,58.13
2023-03-18T19:25:31.362Z,58.06
2023-03-18T19:27:45.963Z,58.58
2023-03-18T19:29:04.831Z,58.34
2023-03-18T19:30:00.639Z,57.85
2023-03-18T19:31:04.820Z,57.70
2023-03-18T19:32:18.999Z,57.79
2023-03-18T19:33:21.642Z,57.71
2023-03-18T19:34:24.881Z,57.50
2023-03-18T19:35:27.111Z,57.33
2023-03-18T19:36:33.108Z,57.65
2023-03-18T19:37:38.140Z,57.57
2023-03-18T19:38:40.404Z,56.92
2023-03-18T19:39:44.561Z,56.97
2023-03-18T19:40:49.543Z,57.28
2023-03-18T19:41:51.964Z,57.41
2023-03-18T19:42:54.569Z,57.49
2023-03-18T19:45:14.773Z,57.62
2023-03-18T19:46:25.734Z,57.82
2023-03-18T19:47:30.233Z,57.95
2023-03-18T19:48:32.529Z,57.88
2023-03-18T19:49:36.077Z,58.11
2023-03-18T19:50:40.506Z,58.16
2023-03-18T19:51:43.490Z,58.08
2023-03-18T19:52:46.216Z,58.05
2023-03-18T19:53:48.777Z,57.83
2023-03-18T19:54:52.444Z,57.81
2023-03-18T19:55:55.098Z,57.54
2023-03-18T19:57:00.494Z,57.64
2023-03-18T19:58:03.326Z,57.55
2023-03-18T19:59:09.514Z,57.60
2023-03-18T20:01:34.786Z,57.30
2023-03-18T20:02:37.846Z,57.53
2023-03-18T20:03:40.274Z,57.62
2023-03-18T20:04:43.371Z,57.67
2023-03-18T20:05:47.116Z,57.64
2023-03-18T20:06:49.414Z,57.87
2023-03-18T20:07:52.124Z,57.74
2023-03-18T20:08:54.436Z,57.60
2023-03-18T20:09:56.932Z,57.65
2023-03-18T20:10:59.577Z,57.68
2023-03-18T20:12:04.392Z,57.59
2023-03-18T20:13:10.883Z,57.60
2023-03-18T20:14:31.679Z,57.76
2023-03-18T20:15:35.310Z,57.82
2023-03-18T20:16:37.741Z,57.77
2023-03-18T20:17:43.243Z,58.03
2023-03-18T20:18:45.761Z,58.07
2023-03-18T20:19:47.925Z,58.08
2023-03-18T20:20:50.976Z,57.76
2023-03-18T20:21:53.201Z,57.88
2023-03-18T20:23:03.080Z,57.73
2023-03-18T20:24:08.934Z,57.80
2023-03-18T20:26:29.944Z,57.85
2023-03-18T20:27:32.765Z,58.09
2023-03-18T20:28:36.518Z,57.76
2023-03-18T20:29:38.685Z,57.87
2023-03-18T20:30:47.443Z,57.83
2023-03-18T20:31:54.344Z,57.79
2023-03-18T20:32:59.916Z,57.92
2023-03-18T20:34:07.628Z,57.62
2023-03-18T20:35:10.433Z,57.80
2023-03-18T20:36:19.210Z,57.96
2023-03-18T20:38:57.360Z,57.72
2023-03-18T20:41:19.581Z,57.80
2023-03-18T20:42:24.066Z,57.90
2023-03-18T20:43:29.127Z,57.82
2023-03-18T20:44:46.455Z,57.63
2023-03-18T20:45:52.622Z,57.56
2023-03-18T20:46:55.318Z,57.46
2023-03-18T20:47:57.620Z,57.46
2023-03-18T20:48:59.860Z,57.58
2023-03-18T20:50:03.062Z,57.64
2023-03-18T20:52:44.823Z,57.29
2023-03-18T20:53:53.391Z,57.43
2023-03-18T20:54:57.703Z,57.31
2023-03-18T20:56:01.397Z,57.45
2023-03-18T20:57:04.037Z,57.50
2023-03-18T20:58:10.341Z,57.53
2023-03-18T20:59:12.576Z,57.44
2023-03-18T21:00:17.644Z,57.48
2023-03-18T21:01:20.353Z,57.49
2023-03-18T21:02:35.142Z,57.65
2023-03-18T21:03:37.631Z,57.51
2023-03-18T21:04:40.961Z,57.43
2023-03-18T21:05:43.059Z,57.51
2023-03-18T21:06:45.297Z,57.55
2023-03-18T21:07:48.139Z,57.74
2023-03-18T21:08:50.306Z,57.67
2023-03-18T21:09:54.858Z,57.58
2023-03-18T21:11:01.493Z,57.47
2023-03-18T21:12:05.523Z,57.39
2023-03-18T21:14:42.197Z,57.88
2023-03-18T21:15:46.549Z,57.99
2023-03-18T21:16:49.777Z,57.96
2023-03-18T21:17:57.972Z,57.77
2023-03-18T21:19:03.461Z,57.70
2023-03-18T21:21:40.805Z,58.05
2023-03-18T21:22:47.901Z,58.06
2023-03-18T21:23:52.917Z,58.29
2023-03-18T21:25:01.905Z,58.21
2023-03-18T21:26:12.145Z,57.94
2023-03-18T21:27:23.841Z,57.79
2023-03-18T21:29:48.698Z,57.94
2023-03-18T21:30:58.397Z,58.16
2023-03-18T21:32:01.217Z,58.18
2023-03-18T21:34:19.647Z,58.01
2023-03-18T21:35:25.310Z,58.22
2023-03-18T21:36:29.143Z,58.25
2023-03-18T21:37:31.841Z,57.91
2023-03-18T21:38:33.969Z,57.80
2023-03-18T21:39:36.064Z,58.36
2023-03-18T21:40:44.875Z,58.30
2023-03-18T21:41:48.754Z,58.17
2023-03-18T21:42:54.160Z,58.20
2023-03-18T21:43:58.169Z,58.17
2023-03-18T21:45:00.985Z,58.18
2023-03-18T21:46:07.368Z,58.38
2023-03-18T21:47:17.847Z,58.67
2023-03-18T21:48:20.781Z,58.52
2023-03-18T21:49:33.886Z,58.30
2023-03-18T21:50:40.658Z,58.17
2023-03-18T21:51:44.751Z,58.34
2023-03-18T21:52:48.187Z,58.06
2023-03-18T21:53:54.674Z,58.08
2023-03-18T21:55:10.307Z,57.98
2023-03-18T21:56:13.819Z,58.05
2023-03-18T21:57:19.135Z,58.08
2023-03-18T21:58:27.114Z,57.85
2023-03-18T21:59:32.968Z,57.90
2023-03-18T22:00:35.502Z,58.03
2023-03-18T22:01:40.899Z,58.07
2023-03-18T22:02:48.794Z,57.94
2023-03-18T22:03:51.120Z,57.94
2023-03-18T22:05:01.676Z,57.85
2023-03-18T22:06:05.721Z,57.99
2023-03-18T22:07:19.811Z,57.90
2023-03-18T22:08:26.073Z,57.92
2023-03-18T22:09:29.927Z,57.82
2023-03-18T22:10:33.356Z,57.81
2023-03-18T22:11:37.818Z,58.08
2023-03-18T22:12:43.405Z,58.28
2023-03-18T22:13:52.584Z,58.17
2023-03-18T22:14:56.020Z,57.86
2023-03-18T22:16:00.447Z,58.51
2023-03-18T22:18:45.664Z,58.15
2023-03-18T22:19:58.649Z,58.08
2023-03-18T22:21:01.183Z,58.10
2023-03-18T22:22:07.564Z,57.82
2023-03-18T22:23:19.225Z,57.63
2023-03-18T22:24:21.479Z,57.86
2023-03-18T22:25:35.832Z,57.75
2023-03-18T22:26:43.437Z,58.05
2023-03-18T22:27:47.270Z,58.03
2023-03-18T22:28:52.629Z,58.21
2023-03-18T22:29:57.948Z,58.07
2023-03-18T22:31:05.270Z,57.89
2023-03-18T22:32:27.413Z,57.88
2023-03-18T22:33:33.571Z,58.30
2023-03-18T22:34:35.732Z,58.38
2023-03-18T22:35:38.119Z,58.40
2023-03-18T22:36:41.421Z,58.63
2023-03-18T22:37:54.412Z,58.80
2023-03-18T22:38:58.832Z,59.02
2023-03-18T22:40:02.082Z,59.25
2023-03-18T22:41:04.533Z,58.93
2023-03-18T22:42:10.275Z,58.82
2023-03-18T22:43:33.201Z,58.56
2023-03-18T22:44:35.839Z,58.56
2023-03-18T22:45:40.687Z,58.49
2023-03-18T22:46:49.125Z,58.64
2023-03-18T22:49:15.069Z,59.03
2023-03-18T22:50:18.471Z,59.01
2023-03-18T22:51:28.138Z,58.94
2023-03-18T22:52:32.231Z,58.97
2023-03-18T22:54:53.059Z,58.73
2023-03-18T22:56:17.294Z,58.88
2023-03-18T22:57:26.559Z,58.85
2023-03-18T22:58:30.963Z,59.02
2023-03-18T22:59:33.999Z,58.92
2023-03-18T23:00:41.145Z,58.93
2023-03-18T23:01:44.686Z,59.05
2023-03-18T23:02:50.406Z,59.30
2023-03-18T23:03:54.424Z,59.44
2023-03-18T23:04:56.851Z,59.48
2023-03-18T23:06:16.370Z,59.58
2023-03-18T23:07:31.940Z,59.60
2023-03-18T23:08:34.472Z,59.76
2023-03-18T23:09:50.410Z,59.68
2023-03-18T23:10:47.877Z,59.52
2023-03-18T23:11:49.996Z,59.66
2023-03-18T23:12:53.042Z,59.43
2023-03-18T23:13:56.682Z,59.45
2023-03-18T23:15:01.700Z,59.71
2023-03-18T23:16:17.290Z,59.78
2023-03-18T23:17:26.503Z,59.59
2023-03-18T23:18:33.961Z,59.93
2023-03-18T23:19:38.691Z,59.76
2023-03-18T23:20:45.691Z,59.41
2023-03-18T23:21:47.848Z,59.34
2023-03-18T23:22:50.031Z,59.72
2023-03-18T23:23:53.130Z,60.08
2023-03-18T23:25:00.114Z,60.34
2023-03-18T23:26:02.551Z,59.61
2023-03-18T23:27:10.324Z,59.26
2023-03-18T23:28:18.046Z,59.34
2023-03-18T23:29:20.519Z,59.36
2023-03-18T23:30:24.802Z,59.64
2023-03-18T23:31:28.441Z,59.79
2023-03-18T23:32:33.670Z,59.71
2023-03-18T23:33:35.864Z,59.88
2023-03-18T23:34:42.596Z,59.89
2023-03-18T23:35:45.595Z,59.56
2023-03-18T23:36:52.624Z,59.58
2023-03-18T23:38:04.135Z,59.67
2023-03-18T23:39:06.822Z,59.72
2023-03-18T23:40:11.704Z,59.75
2023-03-18T23:41:14.210Z,59.80
2023-03-18T23:42:20.233Z,59.59
2023-03-18T23:43:29.562Z,59.67
2023-03-18T23:44:34.770Z,59.82
2023-03-18T23:45:39.218Z,59.92
2023-03-18T23:46:49.326Z,60.17
2023-03-18T23:47:54.545Z,59.97
2023-03-18T23:49:06.169Z,60.19
2023-03-18T23:50:10.695Z,60.13
2023-03-18T23:51:14.689Z,59.96
2023-03-18T23:52:16.798Z,59.78
2023-03-18T23:53:19.516Z,59.77
2023-03-18T23:54:22.570Z,59.87
2023-03-18T23:55:45.648Z,59.83
2023-03-18T23:56:31.949Z,59.76
2023-03-18T23:57:43.763Z,59.98
2023-03-18T23:58:46.047Z,59.92
2023-03-18T23:59:48.734Z,59.94
